Portada
METAR-TAF:

METAR-TAF

Aeroports :

Tabas, Iran

latitud: 33-36N, longitud: 056-55E, altitud: 710 m

Observació

L'informe es va fer fa 31 minuts, a les 01:00 UTC
Vent 6 kt del Est
Temperatura 36°C
Humitat 13%
Pressió 1005 hPa

METAR: OIMT 200100Z AUTO 08006KT //// // ////// 36/03 Q1005

Hora: 06:01 (01:31 UTC)


TAF: manca

Observacions i pronòstics meteorològics de més de 4000 aeroports (METAR i TAF).

Les estacions disponibles són els punts grocs i vermells al mapa.

Posi el ratolí al punt desitjat per veure el nom de l'estació.

Feu clic per veure les observacions i els pronòstics meteorològics.

Per canviar el mapa: feu clic els botons verds amb una creu de color negre per apropar; al botó verd amb un guió per allunyar la imatge; o en les fletxes verdes per a mapes adjacents.


METAR-TAF: